Juan de Fuca Strait - central strait: Past 24 Hour Conditions

 

Race Rocks Lightstation

04:00 PM PST 23 November 2014
This table is a summary of hourly weather conditions for the past 24 hours.
Date / Time
(PST)
Wind(knots) Conditions Visibility(km) Pressure(kPa) Air tempC) Relative humidity(%) Dew pointC)
23 November 2014
16:00 WSW 26 N/A N/A 102.1 11 73 6
15:00 WSW 25 gust 30 N/A N/A 102.1 11 72 6
14:00 WSW 24 N/A N/A 102.0 10 79 7
13:00 W 25 gust 33 N/A N/A 102.0 10 76 6
12:00 SW 30 N/A N/A 101.8 10 76 6
11:00 WSW 29 gust 34 N/A N/A 101.8 11 75 6
10:00 SW 26 N/A N/A 101.7 10 78 7
9:00 WSW 24 gust 34 N/A N/A 101.7 10 82 7
8:00 SW 22 N/A N/A 101.6 10 82 7
7:00 WSW 15 N/A N/A 101.6 10 85 8
6:00 SSE 19 N/A N/A 101.5 9 84 6
5:00 SE 18 N/A N/A 101.6 8 88 6
4:00 SE 22 N/A N/A 101.6 9 84 6
3:00 SSE 14 N/A N/A 101.7 9 83 6
2:00 SW 24 gust 29 N/A N/A 101.8 9 79 6
1:00 SSE 12 N/A N/A 101.8 9 82 6
0:00 SSE 12 N/A N/A 101.9 9 76 5
22 November 2014
23:00 SW 6 N/A N/A 101.8 9 88 7
22:00 WSW 11 N/A N/A 101.8 9 86 7
21:00 WSW 8 N/A N/A 101.7 9 88 7
20:00 W 11 N/A N/A 101.7 9 84 6
19:00 SW 12 N/A N/A 101.6 9 78 5
18:00 WSW 20 gust 27 N/A N/A 101.5 10 75 5
17:00 WSW 22 N/A N/A 101.4 10 75 6
16:00 WSW 21 N/A N/A 101.3 10 79 7
 
Map of Pacific - South Coast marine weather areas Tsawwassen Ferry Terminal South Nomad - 46036 Sentry Shoal - 46131 South Brooks - 46132 Halibut Bank - 46146 South Moresby - 46147 South Hecate Strait - 46185 West Sea Otter - 46204 La Perouse Bank - 46206 East Dellwood - 46207 Discovery Island Esquimalt Harbour Kelp Reefs Malahat Race Rocks Lightstation Saturna Island Sheringham Point University of Victoria Victoria Gonzales Victoria Int'l Airport Ballenas Islands Campbell River Airport Comox Airport Entrance Island Fanny Island Nanaimo Airport Port Hardy Airport Sisters Islets Estevan Point Sartine Island Solander Island Tofino Airport Grief Point Powell River Airport Sechelt Cape St.James Bella Bella Airport Bella Coola Airport Cathedral Point Herbert Island Point Atkinson Sand Heads Lightstation Vancouver Harbour Vancouver Int'l Airport West Vancouver Port Alberni Howe Sound - Pam Rocks Squamish Airport